sensor_id;sensor_type;location;lat;lon;timestamp;temperature;humidity
9699;DHT22;10089;47.876;8.346;2023-02-17T00:00:11;6.80;1.00
9699;DHT22;10089;47.876;8.346;2023-02-17T00:02:37;6.80;1.00
9699;DHT22;10089;47.876;8.346;2023-02-17T00:05:05;6.80;1.00
9699;DHT22;10089;47.876;8.346;2023-02-17T00:07:34;6.80;1.00
9699;DHT22;10089;47.876;8.346;2023-02-17T00:10:00;6.80;1.00
9699;DHT22;10089;47.876;8.346;2023-02-17T00:12:26;6.90;1.00
9699;DHT22;10089;47.876;8.346;2023-02-17T00:14:51;6.90;1.00
9699;DHT22;10089;47.876;8.346;2023-02-17T00:17:17;6.90;1.00
9699;DHT22;10089;47.876;8.346;2023-02-17T00:19:43;6.90;1.00
9699;DHT22;10089;47.876;8.346;2023-02-17T00:22:09;6.90;1.00
9699;DHT22;10089;47.876;8.346;2023-02-17T00:24:37;6.80;1.00
9699;DHT22;10089;47.876;8.346;2023-02-17T00:27:04;6.90;1.00
9699;DHT22;10089;47.876;8.346;2023-02-17T00:29:30;6.80;1.00
9699;DHT22;10089;47.876;8.346;2023-02-17T00:31:56;6.80;1.00
9699;DHT22;10089;47.876;8.346;2023-02-17T00:34:22;6.80;1.00
9699;DHT22;10089;47.876;8.346;2023-02-17T00:36:48;6.80;1.00
9699;DHT22;10089;47.876;8.346;2023-02-17T00:39:15;6.80;1.00
9699;DHT22;10089;47.876;8.346;2023-02-17T00:41:41;6.70;1.00
9699;DHT22;10089;47.876;8.346;2023-02-17T00:44:07;6.70;1.00
9699;DHT22;10089;47.876;8.346;2023-02-17T00:46:32;6.70;1.00
9699;DHT22;10089;47.876;8.346;2023-02-17T00:48:58;6.80;1.00
9699;DHT22;10089;47.876;8.346;2023-02-17T00:51:24;6.70;1.00
9699;DHT22;10089;47.876;8.346;2023-02-17T00:53:50;6.70;68.20
9699;DHT22;10089;47.876;8.346;2023-02-17T00:56:16;6.60;99.90
9699;DHT22;10089;47.876;8.346;2023-02-17T00:58:42;6.70;99.90
9699;DHT22;10089;47.876;8.346;2023-02-17T01:01:17;6.70;99.90
9699;DHT22;10089;47.876;8.346;2023-02-17T01:03:43;6.70;99.90
9699;DHT22;10089;47.876;8.346;2023-02-17T01:06:11;6.60;99.90
9699;DHT22;10089;47.876;8.346;2023-02-17T01:08:39;6.60;99.90
9699;DHT22;10089;47.876;8.346;2023-02-17T01:11:05;6.60;99.90
9699;DHT22;10089;47.876;8.346;2023-02-17T01:13:31;6.50;1.00
9699;DHT22;10089;47.876;8.346;2023-02-17T01:15:56;6.40;1.00
9699;DHT22;10089;47.876;8.346;2023-02-17T01:18:23;6.40;1.00
9699;DHT22;10089;47.876;8.346;2023-02-17T01:20:50;6.30;30.00
9699;DHT22;10089;47.876;8.346;2023-02-17T01:23:16;6.30;4.80
9699;DHT22;10089;47.876;8.346;2023-02-17T01:25:43;6.30;99.90
9699;DHT22;10089;47.876;8.346;2023-02-17T01:28:15;6.30;1.00
9699;DHT22;10089;47.876;8.346;2023-02-17T01:30:41;6.40;1.00
9699;DHT22;10089;47.876;8.346;2023-02-17T01:33:06;6.50;1.00
9699;DHT22;10089;47.876;8.346;2023-02-17T01:35:33;6.50;1.00
9699;DHT22;10089;47.876;8.346;2023-02-17T01:37:59;6.50;1.00
9699;DHT22;10089;47.876;8.346;2023-02-17T01:40:25;6.50;1.00
9699;DHT22;10089;47.876;8.346;2023-02-17T01:42:51;6.60;1.00
9699;DHT22;10089;47.876;8.346;2023-02-17T01:48:07;6.60;1.00
9699;DHT22;10089;47.876;8.346;2023-02-17T01:50:43;6.60;99.90
9699;DHT22;10089;47.876;8.346;2023-02-17T01:53:12;6.70;99.90
9699;DHT22;10089;47.876;8.346;2023-02-17T01:55:40;6.70;99.90
9699;DHT22;10089;47.876;8.346;2023-02-17T01:58:08;6.70;99.90
9699;DHT22;10089;47.876;8.346;2023-02-17T02:00:36;6.70;1.00
9699;DHT22;10089;47.876;8.346;2023-02-17T02:03:03;6.70;47.30
9699;DHT22;10089;47.876;8.346;2023-02-17T02:05:31;6.70;99.90
9699;DHT22;10089;47.876;8.346;2023-02-17T02:07:57;6.70;99.90
9699;DHT22;10089;47.876;8.346;2023-02-17T02:10:23;6.70;1.00
9699;DHT22;10089;47.876;8.346;2023-02-17T02:12:49;6.70;1.00
9699;DHT22;10089;47.876;8.346;2023-02-17T02:15:17;6.70;1.00
9699;DHT22;10089;47.876;8.346;2023-02-17T02:20:51;6.70;1.00
9699;DHT22;10089;47.876;8.346;2023-02-17T02:29:24;6.50;71.70
9699;DHT22;10089;47.876;8.346;2023-02-17T02:32:52;6.40;11.90
9699;DHT22;10089;47.876;8.346;2023-02-17T02:38:16;6.20;66.80
9699;DHT22;10089;47.876;8.346;2023-02-17T02:40:46;6.10;65.80
9699;DHT22;10089;47.876;8.346;2023-02-17T02:43:14;6.10;73.10
9699;DHT22;10089;47.876;8.346;2023-02-17T02:45:40;6.20;1.00
9699;DHT22;10089;47.876;8.346;2023-02-17T02:48:06;6.20;1.00
9699;DHT22;10089;47.876;8.346;2023-02-17T02:56:21;6.30;1.00
9699;DHT22;10089;47.876;8.346;2023-02-17T03:07:25;6.20;99.90
9699;DHT22;10089;47.876;8.346;2023-02-17T03:09:55;6.30;99.90
9699;DHT22;10089;47.876;8.346;2023-02-17T03:12:22;6.40;58.20
9699;DHT22;10089;47.876;8.346;2023-02-17T03:14:51;6.40;3.20
9699;DHT22;10089;47.876;8.346;2023-02-17T03:17:17;6.40;1.00
9699;DHT22;10089;47.876;8.346;2023-02-17T03:19:43;6.40;1.00
9699;DHT22;10089;47.876;8.346;2023-02-17T03:22:23;6.40;1.00
9699;DHT22;10089;47.876;8.346;2023-02-17T03:24:50;6.50;1.00
9699;DHT22;10089;47.876;8.346;2023-02-17T03:27:16;6.60;99.90
9699;DHT22;10089;47.876;8.346;2023-02-17T03:29:41;6.50;1.00
9699;DHT22;10089;47.876;8.346;2023-02-17T03:32:07;6.50;99.90
9699;DHT22;10089;47.876;8.346;2023-02-17T03:34:33;6.50;1.00
9699;DHT22;10089;47.876;8.346;2023-02-17T03:36:59;6.50;1.00
9699;DHT22;10089;47.876;8.346;2023-02-17T03:39:24;6.50;99.90
9699;DHT22;10089;47.876;8.346;2023-02-17T03:41:50;6.50;90.60
9699;DHT22;10089;47.876;8.346;2023-02-17T03:44:19;6.50;99.90
9699;DHT22;10089;47.876;8.346;2023-02-17T03:46:45;6.50;99.90
9699;DHT22;10089;47.876;8.346;2023-02-17T03:49:11;6.50;99.90
9699;DHT22;10089;47.876;8.346;2023-02-17T03:51:37;6.40;1.00
9699;DHT22;10089;47.876;8.346;2023-02-17T03:54:03;6.40;1.00
9699;DHT22;10089;47.876;8.346;2023-02-17T03:56:29;6.40;1.00
9699;DHT22;10089;47.876;8.346;2023-02-17T03:58:55;6.40;1.00
9699;DHT22;10089;47.876;8.346;2023-02-17T04:01:21;6.40;1.00
9699;DHT22;10089;47.876;8.346;2023-02-17T04:03:47;6.40;1.00
9699;DHT22;10089;47.876;8.346;2023-02-17T04:06:13;6.40;1.00
9699;DHT22;10089;47.876;8.346;2023-02-17T04:08:40;6.40;1.00
9699;DHT22;10089;47.876;8.346;2023-02-17T04:11:08;6.40;99.90
9699;DHT22;10089;47.876;8.346;2023-02-17T04:13:34;6.40;99.90
9699;DHT22;10089;47.876;8.346;2023-02-17T04:16:00;6.50;1.00
9699;DHT22;10089;47.876;8.346;2023-02-17T04:18:27;6.50;1.00
9699;DHT22;10089;47.876;8.346;2023-02-17T04:20:53;6.60;99.90
9699;DHT22;10089;47.876;8.346;2023-02-17T04:23:19;6.50;99.90
9699;DHT22;10089;47.876;8.346;2023-02-17T04:25:45;6.50;1.00
9699;DHT22;10089;47.876;8.346;2023-02-17T04:28:12;6.60;99.90
9699;DHT22;10089;47.876;8.346;2023-02-17T04:30:38;6.60;99.90
9699;DHT22;10089;47.876;8.346;2023-02-17T04:33:04;6.50;1.00
9699;DHT22;10089;47.876;8.346;2023-02-17T04:35:30;6.50;8.60
9699;DHT22;10089;47.876;8.346;2023-02-17T04:37:56;6.50;1.00
9699;DHT22;10089;47.876;8.346;2023-02-17T04:40:22;6.40;1.00
9699;DHT22;10089;47.876;8.346;2023-02-17T04:42:47;6.40;99.90
9699;DHT22;10089;47.876;8.346;2023-02-17T04:45:13;6.30;79.40
9699;DHT22;10089;47.876;8.346;2023-02-17T04:47:39;6.40;99.90
9699;DHT22;10089;47.876;8.346;2023-02-17T04:50:06;6.40;30.20
9699;DHT22;10089;47.876;8.346;2023-02-17T04:52:33;6.50;99.90
9699;DHT22;10089;47.876;8.346;2023-02-17T04:54:58;6.60;1.00
9699;DHT22;10089;47.876;8.346;2023-02-17T04:57:24;6.60;1.00
9699;DHT22;10089;47.876;8.346;2023-02-17T04:59:50;6.60;1.00
9699;DHT22;10089;47.876;8.346;2023-02-17T05:02:16;6.80;99.90
9699;DHT22;10089;47.876;8.346;2023-02-17T05:04:41;6.70;1.00
9699;DHT22;10089;47.876;8.346;2023-02-17T05:07:07;6.70;99.90
9699;DHT22;10089;47.876;8.346;2023-02-17T05:09:33;6.70;1.00
9699;DHT22;10089;47.876;8.346;2023-02-17T05:11:58;6.70;1.00
9699;DHT22;10089;47.876;8.346;2023-02-17T05:14:24;6.70;1.00
9699;DHT22;10089;47.876;8.346;2023-02-17T05:16:50;6.70;99.90
9699;DHT22;10089;47.876;8.346;2023-02-17T05:19:16;6.70;99.90
9699;DHT22;10089;47.876;8.346;2023-02-17T05:21:41;6.60;1.00
9699;DHT22;10089;47.876;8.346;2023-02-17T05:24:07;6.60;1.00
9699;DHT22;10089;47.876;8.346;2023-02-17T05:26:33;6.70;99.90
9699;DHT22;10089;47.876;8.346;2023-02-17T05:28:59;6.60;1.00
9699;DHT22;10089;47.876;8.346;2023-02-17T05:31:25;6.60;99.90
9699;DHT22;10089;47.876;8.346;2023-02-17T05:33:53;6.50;99.90
9699;DHT22;10089;47.876;8.346;2023-02-17T05:36:18;6.50;99.90
9699;DHT22;10089;47.876;8.346;2023-02-17T05:38:44;6.50;1.00
9699;DHT22;10089;47.876;8.346;2023-02-17T05:41:14;6.50;24.80
9699;DHT22;10089;47.876;8.346;2023-02-17T05:43:40;6.60;1.00
9699;DHT22;10089;47.876;8.346;2023-02-17T05:46:06;6.70;99.90
9699;DHT22;10089;47.876;8.346;2023-02-17T05:48:32;6.60;1.00
9699;DHT22;10089;47.876;8.346;2023-02-17T05:50:58;6.60;1.00
9699;DHT22;10089;47.876;8.346;2023-02-17T05:53:24;6.60;1.00
9699;DHT22;10089;47.876;8.346;2023-02-17T05:55:50;6.60;99.90
9699;DHT22;10089;47.876;8.346;2023-02-17T05:58:16;6.50;1.00
9699;DHT22;10089;47.876;8.346;2023-02-17T06:00:42;6.50;53.20
9699;DHT22;10089;47.876;8.346;2023-02-17T06:03:07;6.60;85.00
9699;DHT22;10089;47.876;8.346;2023-02-17T06:05:33;6.60;1.00
9699;DHT22;10089;47.876;8.346;2023-02-17T06:07:59;6.40;1.00
9699;DHT22;10089;47.876;8.346;2023-02-17T06:10:25;6.70;1.00
9699;DHT22;10089;47.876;8.346;2023-02-17T06:12:50;6.70;1.00
9699;DHT22;10089;47.876;8.346;2023-02-17T06:15:16;6.70;1.00
9699;DHT22;10089;47.876;8.346;2023-02-17T06:17:54;6.80;99.90
9699;DHT22;10089;47.876;8.346;2023-02-17T06:20:20;6.70;99.90
9699;DHT22;10089;47.876;8.346;2023-02-17T06:22:46;6.70;1.00
9699;DHT22;10089;47.876;8.346;2023-02-17T06:25:12;6.70;1.00
9699;DHT22;10089;47.876;8.346;2023-02-17T06:27:37;6.70;1.00
9699;DHT22;10089;47.876;8.346;2023-02-17T06:30:03;6.80;1.00
9699;DHT22;10089;47.876;8.346;2023-02-17T06:32:29;6.70;99.90
9699;DHT22;10089;47.876;8.346;2023-02-17T06:34:55;6.80;99.90
9699;DHT22;10089;47.876;8.346;2023-02-17T06:37:21;6.70;99.90
9699;DHT22;10089;47.876;8.346;2023-02-17T06:39:46;6.80;99.90
9699;DHT22;10089;47.876;8.346;2023-02-17T06:42:12;6.80;99.90
9699;DHT22;10089;47.876;8.346;2023-02-17T06:44:38;6.80;1.00
9699;DHT22;10089;47.876;8.346;2023-02-17T06:47:04;6.80;1.00
9699;DHT22;10089;47.876;8.346;2023-02-17T06:49:29;6.70;1.00
9699;DHT22;10089;47.876;8.346;2023-02-17T06:51:55;6.70;1.00
9699;DHT22;10089;47.876;8.346;2023-02-17T06:54:21;6.70;1.00
9699;DHT22;10089;47.876;8.346;2023-02-17T06:56:46;6.80;1.00
9699;DHT22;10089;47.876;8.346;2023-02-17T06:59:12;6.80;1.00
9699;DHT22;10089;47.876;8.346;2023-02-17T07:01:38;6.80;1.00
9699;DHT22;10089;47.876;8.346;2023-02-17T07:04:04;6.80;1.00
9699;DHT22;10089;47.876;8.346;2023-02-17T07:06:31;6.80;1.00
9699;DHT22;10089;47.876;8.346;2023-02-17T07:08:57;6.70;99.90
9699;DHT22;10089;47.876;8.346;2023-02-17T07:11:23;6.80;53.00
9699;DHT22;10089;47.876;8.346;2023-02-17T07:13:50;6.80;76.30
9699;DHT22;10089;47.876;8.346;2023-02-17T07:16:16;6.80;99.90
9699;DHT22;10089;47.876;8.346;2023-02-17T07:18:42;6.80;99.90
9699;DHT22;10089;47.876;8.346;2023-02-17T07:21:08;6.80;99.90
9699;DHT22;10089;47.876;8.346;2023-02-17T07:23:35;6.80;99.90
9699;DHT22;10089;47.876;8.346;2023-02-17T07:26:11;6.80;99.90
9699;DHT22;10089;47.876;8.346;2023-02-17T07:28:38;6.80;1.00
9699;DHT22;10089;47.876;8.346;2023-02-17T07:31:10;6.80;1.00
9699;DHT22;10089;47.876;8.346;2023-02-17T07:33:36;6.70;1.00
9699;DHT22;10089;47.876;8.346;2023-02-17T07:36:13;6.80;1.00
9699;DHT22;10089;47.876;8.346;2023-02-17T07:38:39;6.80;1.00
9699;DHT22;10089;47.876;8.346;2023-02-17T07:41:07;6.80;1.00
9699;DHT22;10089;47.876;8.346;2023-02-17T07:43:33;6.80;1.00
9699;DHT22;10089;47.876;8.346;2023-02-17T07:45:59;6.90;1.00
9699;DHT22;10089;47.876;8.346;2023-02-17T07:48:25;6.90;1.00
9699;DHT22;10089;47.876;8.346;2023-02-17T07:50:51;7.00;1.00
9699;DHT22;10089;47.876;8.346;2023-02-17T07:53:16;6.90;1.00
9699;DHT22;10089;47.876;8.346;2023-02-17T07:55:42;6.90;1.00
9699;DHT22;10089;47.876;8.346;2023-02-17T07:58:08;6.90;1.00
9699;DHT22;10089;47.876;8.346;2023-02-17T08:00:33;7.00;1.00
9699;DHT22;10089;47.876;8.346;2023-02-17T08:02:59;7.00;1.00
9699;DHT22;10089;47.876;8.346;2023-02-17T08:05:25;7.00;1.00
9699;DHT22;10089;47.876;8.346;2023-02-17T08:07:51;7.10;1.00
9699;DHT22;10089;47.876;8.346;2023-02-17T08:10:37;7.20;1.00
9699;DHT22;10089;47.876;8.346;2023-02-17T08:13:22;7.20;1.00
9699;DHT22;10089;47.876;8.346;2023-02-17T08:15:48;7.30;1.00
9699;DHT22;10089;47.876;8.346;2023-02-17T08:18:14;7.30;1.00
9699;DHT22;10089;47.876;8.346;2023-02-17T08:20:39;7.30;1.00
9699;DHT22;10089;47.876;8.346;2023-02-17T08:23:05;7.30;1.00
9699;DHT22;10089;47.876;8.346;2023-02-17T08:25:32;7.30;1.00
9699;DHT22;10089;47.876;8.346;2023-02-17T08:27:58;7.30;1.00
9699;DHT22;10089;47.876;8.346;2023-02-17T08:30:24;7.30;1.00
9699;DHT22;10089;47.876;8.346;2023-02-17T08:32:49;7.30;1.00
9699;DHT22;10089;47.876;8.346;2023-02-17T08:35:15;7.30;1.00
9699;DHT22;10089;47.876;8.346;2023-02-17T08:37:43;7.30;1.00
9699;DHT22;10089;47.876;8.346;2023-02-17T08:40:10;7.30;1.00
9699;DHT22;10089;47.876;8.346;2023-02-17T08:42:35;7.40;1.00
9699;DHT22;10089;47.876;8.346;2023-02-17T08:45:03;7.40;1.00
9699;DHT22;10089;47.876;8.346;2023-02-17T08:47:29;7.40;1.00
9699;DHT22;10089;47.876;8.346;2023-02-17T08:49:55;7.40;1.00
9699;DHT22;10089;47.876;8.346;2023-02-17T08:52:20;7.40;1.00
9699;DHT22;10089;47.876;8.346;2023-02-17T08:54:46;7.50;1.00
9699;DHT22;10089;47.876;8.346;2023-02-17T08:57:12;7.50;1.00
9699;DHT22;10089;47.876;8.346;2023-02-17T08:59:38;7.60;1.00
9699;DHT22;10089;47.876;8.346;2023-02-17T09:02:03;7.60;1.00
9699;DHT22;10089;47.876;8.346;2023-02-17T09:04:29;7.70;1.00
9699;DHT22;10089;47.876;8.346;2023-02-17T09:06:55;7.70;1.00
9699;DHT22;10089;47.876;8.346;2023-02-17T09:09:23;7.80;1.00
9699;DHT22;10089;47.876;8.346;2023-02-17T09:11:55;7.90;1.00
9699;DHT22;10089;47.876;8.346;2023-02-17T09:14:21;7.90;1.00
9699;DHT22;10089;47.876;8.346;2023-02-17T09:16:51;8.00;1.00
9699;DHT22;10089;47.876;8.346;2023-02-17T09:19:18;8.00;1.00
9699;DHT22;10089;47.876;8.346;2023-02-17T09:21:44;7.90;1.00
9699;DHT22;10089;47.876;8.346;2023-02-17T09:24:10;7.90;1.00
9699;DHT22;10089;47.876;8.346;2023-02-17T09:26:35;7.90;1.00
9699;DHT22;10089;47.876;8.346;2023-02-17T09:29:03;7.90;1.00
9699;DHT22;10089;47.876;8.346;2023-02-17T09:31:29;7.90;1.00
9699;DHT22;10089;47.876;8.346;2023-02-17T09:33:56;7.90;1.00
9699;DHT22;10089;47.876;8.346;2023-02-17T09:36:24;7.80;1.00
9699;DHT22;10089;47.876;8.346;2023-02-17T09:38:50;7.90;1.00
9699;DHT22;10089;47.876;8.346;2023-02-17T09:41:26;8.00;1.00
9699;DHT22;10089;47.876;8.346;2023-02-17T09:43:57;8.00;1.00
9699;DHT22;10089;47.876;8.346;2023-02-17T09:46:38;8.00;1.00
9699;DHT22;10089;47.876;8.346;2023-02-17T09:49:16;8.10;1.00
9699;DHT22;10089;47.876;8.346;2023-02-17T09:56:52;8.30;1.00
9699;DHT22;10089;47.876;8.346;2023-02-17T09:59:43;8.30;1.00
9699;DHT22;10089;47.876;8.346;2023-02-17T10:03:14;8.30;1.00
9699;DHT22;10089;47.876;8.346;2023-02-17T10:05:10;8.30;1.00
9699;DHT22;10089;47.876;8.346;2023-02-17T10:08:02;8.40;1.00
9699;DHT22;10089;47.876;8.346;2023-02-17T10:10:51;8.40;1.00
9699;DHT22;10089;47.876;8.346;2023-02-17T10:13:21;8.30;1.00
9699;DHT22;10089;47.876;8.346;2023-02-17T10:15:51;8.30;1.00
9699;DHT22;10089;47.876;8.346;2023-02-17T10:21:26;8.30;1.00
9699;DHT22;10089;47.876;8.346;2023-02-17T10:23:52;8.20;1.00
9699;DHT22;10089;47.876;8.346;2023-02-17T10:29:13;8.20;1.00
9699;DHT22;10089;47.876;8.346;2023-02-17T10:34:35;8.20;1.00
9699;DHT22;10089;47.876;8.346;2023-02-17T10:37:26;8.20;1.00
9699;DHT22;10089;47.876;8.346;2023-02-17T10:39:54;8.20;1.00
9699;DHT22;10089;47.876;8.346;2023-02-17T10:42:27;8.20;1.00
9699;DHT22;10089;47.876;8.346;2023-02-17T10:45:40;8.10;1.00
9699;DHT22;10089;47.876;8.346;2023-02-17T10:47:47;8.00;1.00
9699;DHT22;10089;47.876;8.346;2023-02-17T10:50:21;8.10;1.00
9699;DHT22;10089;47.876;8.346;2023-02-17T10:52:48;8.10;2.40
9699;DHT22;10089;47.876;8.346;2023-02-17T10:55:37;8.20;1.00
9699;DHT22;10089;47.876;8.346;2023-02-17T10:58:27;8.20;1.00
9699;DHT22;10089;47.876;8.346;2023-02-17T11:00:55;8.70;1.00
9699;DHT22;10089;47.876;8.346;2023-02-17T11:03:25;8.30;1.00
9699;DHT22;10089;47.876;8.346;2023-02-17T11:05:59;8.30;1.00
9699;DHT22;10089;47.876;8.346;2023-02-17T11:08:38;8.40;1.00
9699;DHT22;10089;47.876;8.346;2023-02-17T11:11:19;8.60;1.00
9699;DHT22;10089;47.876;8.346;2023-02-17T11:16:41;8.80;1.00
9699;DHT22;10089;47.876;8.346;2023-02-17T11:19:20;8.70;1.00
9699;DHT22;10089;47.876;8.346;2023-02-17T11:21:47;8.80;1.00
9699;DHT22;10089;47.876;8.346;2023-02-17T11:24:14;8.80;1.00
9699;DHT22;10089;47.876;8.346;2023-02-17T11:26:40;8.90;1.00
9699;DHT22;10089;47.876;8.346;2023-02-17T11:29:14;8.90;1.00
9699;DHT22;10089;47.876;8.346;2023-02-17T11:31:40;8.80;1.00
9699;DHT22;10089;47.876;8.346;2023-02-17T11:34:14;8.80;1.00
9699;DHT22;10089;47.876;8.346;2023-02-17T11:36:43;8.80;1.00
9699;DHT22;10089;47.876;8.346;2023-02-17T11:39:18;8.80;1.00
9699;DHT22;10089;47.876;8.346;2023-02-17T11:41:45;8.80;1.00
9699;DHT22;10089;47.876;8.346;2023-02-17T11:44:20;8.80;1.00
9699;DHT22;10089;47.876;8.346;2023-02-17T11:46:54;8.90;1.00
9699;DHT22;10089;47.876;8.346;2023-02-17T11:49:41;9.10;1.00
9699;DHT22;10089;47.876;8.346;2023-02-17T11:55:17;9.10;1.00
9699;DHT22;10089;47.876;8.346;2023-02-17T11:58:02;9.10;1.00
9699;DHT22;10089;47.876;8.346;2023-02-17T12:03:44;9.40;1.00
9699;DHT22;10089;47.876;8.346;2023-02-17T12:09:06;9.30;1.00
9699;DHT22;10089;47.876;8.346;2023-02-17T12:11:42;8.90;1.00
9699;DHT22;10089;47.876;8.346;2023-02-17T12:25:41;9.70;1.00
9699;DHT22;10089;47.876;8.346;2023-02-17T12:34:06;10.10;1.00
9699;DHT22;10089;47.876;8.346;2023-02-17T12:36:37;10.20;1.00
9699;DHT22;10089;47.876;8.346;2023-02-17T12:39:21;10.00;1.00
9699;DHT22;10089;47.876;8.346;2023-02-17T12:41:55;10.00;1.00
9699;DHT22;10089;47.876;8.346;2023-02-17T12:44:33;9.90;1.00
9699;DHT22;10089;47.876;8.346;2023-02-17T12:47:08;10.20;1.00
9699;DHT22;10089;47.876;8.346;2023-02-17T12:49:39;10.30;1.00
9699;DHT22;10089;47.876;8.346;2023-02-17T12:52:24;10.60;1.00
9699;DHT22;10089;47.876;8.346;2023-02-17T12:55:00;10.40;99.90
9699;DHT22;10089;47.876;8.346;2023-02-17T13:00:19;9.90;1.00
9699;DHT22;10089;47.876;8.346;2023-02-17T13:02:46;9.80;1.00
9699;DHT22;10089;47.876;8.346;2023-02-17T13:11:27;9.70;1.00
9699;DHT22;10089;47.876;8.346;2023-02-17T13:13:53;9.60;1.00
9699;DHT22;10089;47.876;8.346;2023-02-17T13:16:19;9.60;1.00
9699;DHT22;10089;47.876;8.346;2023-02-17T13:18:47;9.70;1.00
9699;DHT22;10089;47.876;8.346;2023-02-17T13:23:41;9.80;1.00
9699;DHT22;10089;47.876;8.346;2023-02-17T13:26:24;9.80;1.00
9699;DHT22;10089;47.876;8.346;2023-02-17T13:28:52;9.70;1.00
9699;DHT22;10089;47.876;8.346;2023-02-17T13:31:24;9.70;1.00
9699;DHT22;10089;47.876;8.346;2023-02-17T13:33:55;9.60;1.00
9699;DHT22;10089;47.876;8.346;2023-02-17T13:36:35;9.50;1.00
9699;DHT22;10089;47.876;8.346;2023-02-17T13:41:46;9.40;1.00
9699;DHT22;10089;47.876;8.346;2023-02-17T13:46:45;9.30;1.00
9699;DHT22;10089;47.876;8.346;2023-02-17T13:49:20;9.20;1.00
9699;DHT22;10089;47.876;8.346;2023-02-17T13:51:46;9.20;1.00
9699;DHT22;10089;47.876;8.346;2023-02-17T13:54:14;9.30;1.00
9699;DHT22;10089;47.876;8.346;2023-02-17T13:56:52;9.30;1.00
9699;DHT22;10089;47.876;8.346;2023-02-17T13:59:25;9.40;1.00
9699;DHT22;10089;47.876;8.346;2023-02-17T14:01:52;9.40;1.00
9699;DHT22;10089;47.876;8.346;2023-02-17T14:04:40;9.50;1.00
9699;DHT22;10089;47.876;8.346;2023-02-17T14:07:05;9.60;1.00
9699;DHT22;10089;47.876;8.346;2023-02-17T14:09:32;9.50;1.00
9699;DHT22;10089;47.876;8.346;2023-02-17T14:12:01;9.50;1.00
9699;DHT22;10089;47.876;8.346;2023-02-17T14:14:38;9.60;1.00
9699;DHT22;10089;47.876;8.346;2023-02-17T14:17:07;9.50;1.00
9699;DHT22;10089;47.876;8.346;2023-02-17T14:19:44;9.50;1.00
9699;DHT22;10089;47.876;8.346;2023-02-17T14:22:23;9.50;1.00
9699;DHT22;10089;47.876;8.346;2023-02-17T14:25:04;9.50;1.00
9699;DHT22;10089;47.876;8.346;2023-02-17T14:27:44;9.50;1.00
9699;DHT22;10089;47.876;8.346;2023-02-17T14:30:30;9.50;1.00
9699;DHT22;10089;47.876;8.346;2023-02-17T14:33:06;9.50;1.00
9699;DHT22;10089;47.876;8.346;2023-02-17T14:35:33;9.40;1.00
9699;DHT22;10089;47.876;8.346;2023-02-17T14:38:18;9.50;1.00
9699;DHT22;10089;47.876;8.346;2023-02-17T14:40:45;9.50;1.00
9699;DHT22;10089;47.876;8.346;2023-02-17T14:43:11;9.50;1.00
9699;DHT22;10089;47.876;8.346;2023-02-17T14:45:36;9.50;1.00
9699;DHT22;10089;47.876;8.346;2023-02-17T14:48:02;9.50;1.00
9699;DHT22;10089;47.876;8.346;2023-02-17T14:50:31;9.50;1.00
9699;DHT22;10089;47.876;8.346;2023-02-17T14:52:56;9.50;1.00
9699;DHT22;10089;47.876;8.346;2023-02-17T14:55:31;9.50;1.00
9699;DHT22;10089;47.876;8.346;2023-02-17T14:57:59;9.40;1.00
9699;DHT22;10089;47.876;8.346;2023-02-17T15:00:25;9.30;1.00
9699;DHT22;10089;47.876;8.346;2023-02-17T15:02:51;9.20;1.00
9699;DHT22;10089;47.876;8.346;2023-02-17T15:05:17;9.20;1.00
9699;DHT22;10089;47.876;8.346;2023-02-17T15:07:43;9.20;1.00
9699;DHT22;10089;47.876;8.346;2023-02-17T15:10:24;9.10;1.00
9699;DHT22;10089;47.876;8.346;2023-02-17T15:12:50;9.10;1.00
9699;DHT22;10089;47.876;8.346;2023-02-17T15:15:17;9.10;3.30
9699;DHT22;10089;47.876;8.346;2023-02-17T15:17:43;9.10;1.00
9699;DHT22;10089;47.876;8.346;2023-02-17T15:20:12;9.00;4.60
9699;DHT22;10089;47.876;8.346;2023-02-17T15:22:38;9.10;10.70
9699;DHT22;10089;47.876;8.346;2023-02-17T15:25:17;9.10;10.70
9699;DHT22;10089;47.876;8.346;2023-02-17T15:27:45;9.10;15.00
9699;DHT22;10089;47.876;8.346;2023-02-17T15:30:12;9.00;22.40
9699;DHT22;10089;47.876;8.346;2023-02-17T15:32:39;9.00;21.90
9699;DHT22;10089;47.876;8.346;2023-02-17T15:35:25;9.00;40.80
9699;DHT22;10089;47.876;8.346;2023-02-17T15:37:52;9.00;40.90
9699;DHT22;10089;47.876;8.346;2023-02-17T15:40:26;9.00;55.20
9699;DHT22;10089;47.876;8.346;2023-02-17T15:42:55;8.90;74.30
9699;DHT22;10089;47.876;8.346;2023-02-17T15:45:22;9.00;90.40
9699;DHT22;10089;47.876;8.346;2023-02-17T15:47:51;8.90;97.40
9699;DHT22;10089;47.876;8.346;2023-02-17T15:50:20;8.90;94.30
9699;DHT22;10089;47.876;8.346;2023-02-17T15:52:49;8.90;97.50
9699;DHT22;10089;47.876;8.346;2023-02-17T15:55:16;8.90;93.50
9699;DHT22;10089;47.876;8.346;2023-02-17T15:57:49;8.80;95.10
9699;DHT22;10089;47.876;8.346;2023-02-17T16:00:25;8.80;99.90
9699;DHT22;10089;47.876;8.346;2023-02-17T16:02:52;8.70;99.90
9699;DHT22;10089;47.876;8.346;2023-02-17T16:05:19;8.70;99.90
9699;DHT22;10089;47.876;8.346;2023-02-17T16:07:45;8.60;99.90
9699;DHT22;10089;47.876;8.346;2023-02-17T16:10:14;8.60;99.90
9699;DHT22;10089;47.876;8.346;2023-02-17T16:12:40;8.60;99.90
9699;DHT22;10089;47.876;8.346;2023-02-17T16:15:11;8.50;99.90
9699;DHT22;10089;47.876;8.346;2023-02-17T16:17:37;8.50;99.90
9699;DHT22;10089;47.876;8.346;2023-02-17T16:20:34;8.40;99.90
9699;DHT22;10089;47.876;8.346;2023-02-17T16:23:01;8.40;99.90
9699;DHT22;10089;47.876;8.346;2023-02-17T16:25:28;8.40;99.90
9699;DHT22;10089;47.876;8.346;2023-02-17T16:27:54;8.40;99.90
9699;DHT22;10089;47.876;8.346;2023-02-17T16:30:31;8.40;99.90
9699;DHT22;10089;47.876;8.346;2023-02-17T16:32:57;8.40;99.90
9699;DHT22;10089;47.876;8.346;2023-02-17T16:35:26;8.40;99.90
9699;DHT22;10089;47.876;8.346;2023-02-17T16:38:17;8.40;99.90
9699;DHT22;10089;47.876;8.346;2023-02-17T16:40:46;8.40;99.90
9699;DHT22;10089;47.876;8.346;2023-02-17T16:43:17;8.30;99.90
9699;DHT22;10089;47.876;8.346;2023-02-17T16:45:56;8.30;99.90
9699;DHT22;10089;47.876;8.346;2023-02-17T16:48:24;8.30;99.90
9699;DHT22;10089;47.876;8.346;2023-02-17T16:50:50;8.30;99.90
9699;DHT22;10089;47.876;8.346;2023-02-17T16:53:16;8.30;99.90
9699;DHT22;10089;47.876;8.346;2023-02-17T16:55:43;8.30;99.90
9699;DHT22;10089;47.876;8.346;2023-02-17T16:58:15;8.20;99.90
9699;DHT22;10089;47.876;8.346;2023-02-17T17:00:41;8.20;99.90
9699;DHT22;10089;47.876;8.346;2023-02-17T17:03:07;8.20;99.90
9699;DHT22;10089;47.876;8.346;2023-02-17T17:05:33;8.20;99.90
9699;DHT22;10089;47.876;8.346;2023-02-17T17:08:00;8.20;99.90
9699;DHT22;10089;47.876;8.346;2023-02-17T17:10:28;8.20;99.90
9699;DHT22;10089;47.876;8.346;2023-02-17T17:12:54;8.20;99.90
9699;DHT22;10089;47.876;8.346;2023-02-17T17:15:20;8.20;99.90
9699;DHT22;10089;47.876;8.346;2023-02-17T17:20:19;8.20;99.90
9699;DHT22;10089;47.876;8.346;2023-02-17T17:22:46;8.20;99.90
9699;DHT22;10089;47.876;8.346;2023-02-17T17:25:13;8.20;99.90
9699;DHT22;10089;47.876;8.346;2023-02-17T17:27:39;8.20;99.90
9699;DHT22;10089;47.876;8.346;2023-02-17T17:30:11;8.20;99.90
9699;DHT22;10089;47.876;8.346;2023-02-17T17:32:39;8.30;99.90
9699;DHT22;10089;47.876;8.346;2023-02-17T17:35:05;8.20;99.90
9699;DHT22;10089;47.876;8.346;2023-02-17T17:37:31;8.20;99.90
9699;DHT22;10089;47.876;8.346;2023-02-17T17:39:57;8.20;99.90
9699;DHT22;10089;47.876;8.346;2023-02-17T17:42:22;8.20;99.90
9699;DHT22;10089;47.876;8.346;2023-02-17T17:44:48;8.20;99.90
9699;DHT22;10089;47.876;8.346;2023-02-17T17:47:17;8.20;99.90
9699;DHT22;10089;47.876;8.346;2023-02-17T17:49:44;8.20;99.90
9699;DHT22;10089;47.876;8.346;2023-02-17T17:52:10;8.20;99.90
9699;DHT22;10089;47.876;8.346;2023-02-17T17:54:38;8.10;99.90